»·PEaware :: PAA921 KNYL-KSNA

PAA921 :: KNYL-KSNA

FLIGHT INFORMATION

Flight Status: Arrived
Operator:
PanAm
More flights by this operator :: More flights under this callsign
Pilot: Dave P. (45)
Aircraft: BOEING 737-600
(B736)
More flights by this aircraft type
Origin: KNYL Yuma MCAS/Yuma Intl
United States
Destination: KSNA John Wayne-Orange Co
United States
More flights between these airports :: More routes between these airports
Route: BZA BLH PSP KAYOH8
File this flight plan on PilotEdge
Remarks:
Altitude:
(Current/Filed)
28,000ft
Speed:
(Current/Filed)
461kts
Departed: 31-Jan-23 12:23 PM
Arrived: 31-Jan-23 01:06 PM
Distance/Time
Traveled:
175nm/0:43
Distance/Time
To Go:
Arrived

Flight Plot

Page will automatically refresh every two minutes.

Flight plan parsing failed; only flown route is shown


Map Options




Map Legend


Flown Route
Filed Route
Departure Airport
Arrival Airport
Navaid (VOR, NDB)
Fix

Horizontal Profiles

Position Reports

Time Latitude Longitude Heading Altitude Ground
Speed
31-Jan-23 11:48 32.667928 -114.598897 30 210ft 0kts
31-Jan-23 11:49 32.667928 -114.598897 30 210ft 0kts
31-Jan-23 11:50 32.667928 -114.598897 30 210ft 0kts
31-Jan-23 11:51 32.667928 -114.598897 30 210ft 0kts
31-Jan-23 11:52 32.667928 -114.598897 30 210ft 0kts
31-Jan-23 11:53 32.667928 -114.598897 30 210ft 0kts
31-Jan-23 11:54 32.667928 -114.598897 30 210ft 0kts
31-Jan-23 11:55 32.667928 -114.598897 30 210ft 0kts
31-Jan-23 11:56 32.667928 -114.598897 30 210ft 0kts
31-Jan-23 11:57 32.667928 -114.598897 30 210ft 0kts
31-Jan-23 11:58 32.667928 -114.598897 30 210ft 0kts
31-Jan-23 11:59 32.667928 -114.598897 30 210ft 0kts
31-Jan-23 12:00 32.667928 -114.598897 30 210ft 0kts
31-Jan-23 12:01 32.667928 -114.598897 30 210ft 0kts
31-Jan-23 12:02 32.667928 -114.598897 30 210ft 0kts
31-Jan-23 12:03 32.667928 -114.598897 30 210ft 0kts
31-Jan-23 12:04 32.667928 -114.598897 30 210ft 0kts
31-Jan-23 12:05 32.667928 -114.598897 30 210ft 0kts
31-Jan-23 12:06 32.667667 -114.599073 28 210ft 2kts
31-Jan-23 12:07 32.667523 -114.599375 93 209ft 0kts
31-Jan-23 12:08 32.667523 -114.599375 93 209ft 0kts
31-Jan-23 12:09 32.667523 -114.599375 93 209ft 0kts
31-Jan-23 12:10 32.667523 -114.599375 93 209ft 0kts
31-Jan-23 12:11 32.667285 -114.599819 269 209ft 12kts
31-Jan-23 12:12 32.666918 -114.604062 178 209ft 7kts
31-Jan-23 12:13 32.661363 -114.603943 180 202ft 22kts
31-Jan-23 12:14 32.655477 -114.603838 179 194ft 19kts
31-Jan-23 12:15 32.651236 -114.607407 224 204ft 25kts
31-Jan-23 12:16 32.646598 -114.612709 223 208ft 21kts
31-Jan-23 12:17 32.642291 -114.617654 224 210ft 26kts
31-Jan-23 12:18 32.637553 -114.623087 224 208ft 21kts
31-Jan-23 12:19 32.635189 -114.627084 306 215ft 12kts
31-Jan-23 12:20 32.636182 -114.628324 314 203ft 0kts
31-Jan-23 12:21 32.637602 -114.628465 46 207ft 19kts
31-Jan-23 12:22 32.661982 -114.601493 24 2674ft 141kts
31-Jan-23 12:23 32.719648 -114.599422 359 4634ft 258kts
31-Jan-23 12:24 32.793690 -114.606921 354 9034ft 277kts
31-Jan-23 12:25 32.877448 -114.623317 353 11652ft 343kts
31-Jan-23 12:26 32.973335 -114.641829 353 15323ft 356kts
31-Jan-23 12:27 33.073111 -114.660870 353 18653ft 371kts
31-Jan-23 12:28 33.178971 -114.681078 351 21054ft 399kts
31-Jan-23 12:29 33.292216 -114.702804 350 23519ft 423kts
31-Jan-23 12:30 33.410424 -114.725508 349 25727ft 438kts
31-Jan-23 12:32 33.532647 -114.749248 346 27928ft 446kts
31-Jan-23 12:33 33.611962 -114.847714 280 28167ft 425kts
31-Jan-23 12:34 33.634774 -114.986592 279 28174ft 429kts
31-Jan-23 12:35 33.658198 -115.127278 281 28156ft 430kts
31-Jan-23 12:36 33.681879 -115.268479 282 28155ft 432kts
31-Jan-23 12:37 33.705436 -115.409959 282 28170ft 434kts
31-Jan-23 12:38 33.728961 -115.552436 283 28171ft 435kts
31-Jan-23 12:39 33.752340 -115.695100 284 28173ft 435kts
31-Jan-23 12:40 33.775609 -115.838409 284 28177ft 436kts
31-Jan-23 12:41 33.798439 -115.979416 284 28169ft 432kts
31-Jan-23 12:42 33.820905 -116.119706 284 25984ft 416kts
31-Jan-23 12:43 33.842307 -116.254233 285 23846ft 404kts
31-Jan-23 12:44 33.863289 -116.386907 284 21593ft 401kts
31-Jan-23 12:45 33.874970 -116.519632 275 19460ft 394kts
31-Jan-23 12:46 33.880428 -116.648970 276 17336ft 381kts
31-Jan-23 12:47 33.886128 -116.772329 276 15190ft 373kts
31-Jan-23 12:48 33.876403 -116.892640 249 13934ft 357kts
31-Jan-23 12:49 33.838668 -117.000978 249 12443ft 349kts
31-Jan-23 12:50 33.801746 -117.110286 249 11405ft 353kts
31-Jan-23 12:51 33.775622 -117.220827 272 10388ft 331kts
31-Jan-23 12:51 33.777409 -117.308667 273 9892ft 296kts
31-Jan-23 12:53 33.778829 -117.421035 273 8620ft 284kts
31-Jan-23 12:54 33.779682 -117.514506 273 7997ft 275kts
31-Jan-23 12:55 33.769435 -117.601458 262 7951ft 239kts
31-Jan-23 12:55 33.759254 -117.663080 255 8003ft 230kts
31-Jan-23 12:56 33.742258 -117.745898 261 7906ft 272kts
31-Jan-23 12:57 33.728521 -117.834140 261 6822ft 266kts
31-Jan-23 12:59 33.706380 -117.931814 224 4809ft 265kts
31-Jan-23 13:00 33.648818 -117.977667 211 4142ft 224kts
31-Jan-23 13:00 33.606972 -118.008784 210 3287ft 204kts
31-Jan-23 13:01 33.573662 -117.981803 66 2990ft 167kts
31-Jan-23 13:02 33.598563 -117.937070 51 2478ft 162kts
31-Jan-23 13:03 33.626295 -117.900435 28 1439ft 149kts
31-Jan-23 13:04 33.658501 -117.879734 25 315ft 126kts
31-Jan-23 13:05 33.680360 -117.865908 29 48ft 13kts
31-Jan-23 13:06 33.679777 -117.862832 43 49ft 5kts
31-Jan-23 13:07 33.681204 -117.861410 136 46ft 4kts
31-Jan-23 13:08 33.681097 -117.861203 116 49ft 0kts
31-Jan-23 13:09 33.681097 -117.861203 116 49ft 0kts
31-Jan-23 13:10 33.681097 -117.861203 116 49ft 0kts
31-Jan-23 13:11 33.681097 -117.861203 116 49ft 0kts
31-Jan-23 13:12 33.681097 -117.861203 116 49ft 0kts

Navigation Log

Ident Type
Flight plan parsing failed, navigation log unavailable